sensor_id;sensor_type;location;lat;lon;timestamp;temperature;humidity
935;DHT22;454;53.254;10.400;2022-12-18T05:02:39;-5.80;99.90
935;DHT22;454;53.254;10.400;2022-12-18T05:05:07;-5.80;99.90
935;DHT22;454;53.254;10.400;2022-12-18T05:07:34;-5.90;99.90
935;DHT22;454;53.254;10.400;2022-12-18T05:10:01;-5.90;99.90
935;DHT22;454;53.254;10.400;2022-12-18T05:12:28;-5.90;99.90
935;DHT22;454;53.254;10.400;2022-12-18T05:14:54;-5.90;99.90
935;DHT22;454;53.254;10.400;2022-12-18T05:17:21;-5.90;99.90
935;DHT22;454;53.254;10.400;2022-12-18T05:19:49;-5.90;99.90
935;DHT22;454;53.254;10.400;2022-12-18T05:22:16;-6.00;99.90
935;DHT22;454;53.254;10.400;2022-12-18T05:24:43;-6.00;99.90
935;DHT22;454;53.254;10.400;2022-12-18T05:27:09;-6.00;99.90
935;DHT22;454;53.254;10.400;2022-12-18T05:29:36;-6.00;99.90
935;DHT22;454;53.254;10.400;2022-12-18T05:32:03;-6.00;99.90
935;DHT22;454;53.254;10.400;2022-12-18T05:34:30;-6.00;99.90
935;DHT22;454;53.254;10.400;2022-12-18T05:37:00;-6.00;99.90
935;DHT22;454;53.254;10.400;2022-12-18T05:39:27;-6.00;99.90
935;DHT22;454;53.254;10.400;2022-12-18T05:41:53;-6.00;99.90
935;DHT22;454;53.254;10.400;2022-12-18T05:44:20;-6.00;99.90
935;DHT22;454;53.254;10.400;2022-12-18T05:46:47;-6.00;99.90
935;DHT22;454;53.254;10.400;2022-12-18T05:49:14;-6.00;99.90
935;DHT22;454;53.254;10.400;2022-12-18T05:51:40;-6.00;99.90
935;DHT22;454;53.254;10.400;2022-12-18T05:54:08;-6.00;99.90
935;DHT22;454;53.254;10.400;2022-12-18T05:56:35;-6.00;99.90
935;DHT22;454;53.254;10.400;2022-12-18T05:59:02;-6.00;99.90
935;DHT22;454;53.254;10.400;2022-12-18T06:01:28;-6.00;99.90
935;DHT22;454;53.254;10.400;2022-12-18T06:03:55;-6.00;99.90
935;DHT22;454;53.254;10.400;2022-12-18T06:06:23;-6.10;99.90
935;DHT22;454;53.254;10.400;2022-12-18T06:08:51;-6.10;99.90
935;DHT22;454;53.254;10.400;2022-12-18T06:11:21;-6.20;99.90
935;DHT22;454;53.254;10.400;2022-12-18T06:13:50;-6.20;99.90
935;DHT22;454;53.254;10.400;2022-12-18T06:16:16;-6.20;99.90
935;DHT22;454;53.254;10.400;2022-12-18T06:18:43;-6.20;99.90
935;DHT22;454;53.254;10.400;2022-12-18T06:21:10;-6.20;99.90
935;DHT22;454;53.254;10.400;2022-12-18T06:23:37;-6.20;99.90
935;DHT22;454;53.254;10.400;2022-12-18T06:26:05;-6.20;99.90
935;DHT22;454;53.254;10.400;2022-12-18T06:28:33;-6.20;99.90
935;DHT22;454;53.254;10.400;2022-12-18T06:31:00;-6.20;99.90
935;DHT22;454;53.254;10.400;2022-12-18T06:33:27;-6.20;99.90
935;DHT22;454;53.254;10.400;2022-12-18T06:35:54;-6.20;99.90
935;DHT22;454;53.254;10.400;2022-12-18T06:38:21;-6.20;99.90
935;DHT22;454;53.254;10.400;2022-12-18T06:40:47;-6.30;99.90
935;DHT22;454;53.254;10.400;2022-12-18T06:43:14;-6.30;99.90
935;DHT22;454;53.254;10.400;2022-12-18T06:45:42;-6.30;99.90
935;DHT22;454;53.254;10.400;2022-12-18T06:48:09;-6.30;99.90
935;DHT22;454;53.254;10.400;2022-12-18T06:50:36;-6.30;99.90
935;DHT22;454;53.254;10.400;2022-12-18T06:53:02;-6.30;99.90
935;DHT22;454;53.254;10.400;2022-12-18T06:55:29;-6.40;99.90
935;DHT22;454;53.254;10.400;2022-12-18T06:57:56;-6.40;99.90
935;DHT22;454;53.254;10.400;2022-12-18T07:00:23;-6.40;99.90
935;DHT22;454;53.254;10.400;2022-12-18T07:02:51;-6.40;99.90
935;DHT22;454;53.254;10.400;2022-12-18T07:05:18;-6.40;99.90
935;DHT22;454;53.254;10.400;2022-12-18T07:07:44;-6.40;99.90
935;DHT22;454;53.254;10.400;2022-12-18T07:10:11;-6.40;99.90
935;DHT22;454;53.254;10.400;2022-12-18T07:12:38;-6.40;99.90
935;DHT22;454;53.254;10.400;2022-12-18T07:15:06;-6.40;99.90
935;DHT22;454;53.254;10.400;2022-12-18T07:17:33;-6.30;99.90
935;DHT22;454;53.254;10.400;2022-12-18T07:20:01;-6.30;99.90
935;DHT22;454;53.254;10.400;2022-12-18T07:22:28;-6.30;99.90
935;DHT22;454;53.254;10.400;2022-12-18T07:24:54;-6.40;99.90
935;DHT22;454;53.254;10.400;2022-12-18T07:27:22;-6.40;99.90
935;DHT22;454;53.254;10.400;2022-12-18T07:29:49;-6.40;99.90
935;DHT22;454;53.254;10.400;2022-12-18T07:32:15;-6.40;99.90
935;DHT22;454;53.254;10.400;2022-12-18T07:34:42;-6.40;99.90
935;DHT22;454;53.254;10.400;2022-12-18T07:37:10;-6.40;99.90
935;DHT22;454;53.254;10.400;2022-12-18T07:39:37;-6.40;99.90
935;DHT22;454;53.254;10.400;2022-12-18T07:42:04;-6.40;99.90
935;DHT22;454;53.254;10.400;2022-12-18T07:44:48;-6.40;99.90
935;DHT22;454;53.254;10.400;2022-12-18T07:47:15;-6.40;99.90
935;DHT22;454;53.254;10.400;2022-12-18T07:49:41;-6.40;99.90
935;DHT22;454;53.254;10.400;2022-12-18T07:52:09;-6.40;99.90
935;DHT22;454;53.254;10.400;2022-12-18T07:54:37;-6.40;99.90
935;DHT22;454;53.254;10.400;2022-12-18T07:57:04;-6.40;99.90
935;DHT22;454;53.254;10.400;2022-12-18T07:59:31;-6.40;99.90
935;DHT22;454;53.254;10.400;2022-12-18T08:01:58;-6.40;99.90
935;DHT22;454;53.254;10.400;2022-12-18T08:04:24;-6.40;99.90
935;DHT22;454;53.254;10.400;2022-12-18T08:06:51;-6.40;99.90
935;DHT22;454;53.254;10.400;2022-12-18T08:09:20;-6.40;99.90
935;DHT22;454;53.254;10.400;2022-12-18T08:11:46;-6.40;99.90
935;DHT22;454;53.254;10.400;2022-12-18T08:14:13;-6.40;99.90
935;DHT22;454;53.254;10.400;2022-12-18T08:16:40;-6.40;99.90
935;DHT22;454;53.254;10.400;2022-12-18T08:19:07;-6.30;99.90
935;DHT22;454;53.254;10.400;2022-12-18T08:21:34;-6.30;99.90
935;DHT22;454;53.254;10.400;2022-12-18T08:24:01;-6.30;99.90
935;DHT22;454;53.254;10.400;2022-12-18T08:26:31;-6.30;99.90
935;DHT22;454;53.254;10.400;2022-12-18T08:28:59;-6.30;99.90
935;DHT22;454;53.254;10.400;2022-12-18T08:31:27;-6.30;99.90
935;DHT22;454;53.254;10.400;2022-12-18T08:33:55;-6.30;99.90
935;DHT22;454;53.254;10.400;2022-12-18T08:36:22;-6.20;99.90
935;DHT22;454;53.254;10.400;2022-12-18T08:38:50;-6.20;99.90
935;DHT22;454;53.254;10.400;2022-12-18T08:41:17;-6.20;99.90
935;DHT22;454;53.254;10.400;2022-12-18T08:43:45;-6.20;99.90
935;DHT22;454;53.254;10.400;2022-12-18T08:46:33;-6.10;99.90
935;DHT22;454;53.254;10.400;2022-12-18T08:49:01;-6.10;99.90
935;DHT22;454;53.254;10.400;2022-12-18T08:51:27;-6.00;99.90
935;DHT22;454;53.254;10.400;2022-12-18T08:53:54;-6.00;99.90
935;DHT22;454;53.254;10.400;2022-12-18T08:56:21;-5.90;99.90
935;DHT22;454;53.254;10.400;2022-12-18T08:58:51;-5.90;99.90
935;DHT22;454;53.254;10.400;2022-12-18T09:01:18;-5.80;99.90
935;DHT22;454;53.254;10.400;2022-12-18T09:03:44;-5.80;99.90
935;DHT22;454;53.254;10.400;2022-12-18T09:06:14;-5.80;99.90
935;DHT22;454;53.254;10.400;2022-12-18T09:08:41;-5.70;99.90
935;DHT22;454;53.254;10.400;2022-12-18T09:11:13;-5.70;99.90
935;DHT22;454;53.254;10.400;2022-12-18T09:13:39;-5.60;99.90
935;DHT22;454;53.254;10.400;2022-12-18T09:16:08;-5.60;99.90
935;DHT22;454;53.254;10.400;2022-12-18T09:18:35;-5.50;99.90
935;DHT22;454;53.254;10.400;2022-12-18T09:21:08;-5.50;99.90
935;DHT22;454;53.254;10.400;2022-12-18T09:23:35;-5.50;99.90
935;DHT22;454;53.254;10.400;2022-12-18T09:26:02;-5.40;99.90
935;DHT22;454;53.254;10.400;2022-12-18T09:28:28;-5.40;99.90
935;DHT22;454;53.254;10.400;2022-12-18T09:30:55;-5.30;99.90
935;DHT22;454;53.254;10.400;2022-12-18T09:33:23;-5.30;99.90
935;DHT22;454;53.254;10.400;2022-12-18T09:35:50;-5.30;99.90
935;DHT22;454;53.254;10.400;2022-12-18T09:38:18;-5.30;99.90
935;DHT22;454;53.254;10.400;2022-12-18T09:40:47;-5.20;99.90
935;DHT22;454;53.254;10.400;2022-12-18T09:43:17;-5.20;99.90
935;DHT22;454;53.254;10.400;2022-12-18T09:45:48;-5.20;99.90
935;DHT22;454;53.254;10.400;2022-12-18T09:48:19;-5.10;99.90
935;DHT22;454;53.254;10.400;2022-12-18T09:50:50;-5.00;99.90
935;DHT22;454;53.254;10.400;2022-12-18T09:53:21;-5.00;99.90
935;DHT22;454;53.254;10.400;2022-12-18T09:55:49;-4.90;99.90
935;DHT22;454;53.254;10.400;2022-12-18T09:58:23;-4.80;99.90
935;DHT22;454;53.254;10.400;2022-12-18T10:00:52;-4.80;99.90
935;DHT22;454;53.254;10.400;2022-12-18T10:03:19;-4.70;99.90
935;DHT22;454;53.254;10.400;2022-12-18T10:05:54;-4.60;99.90
935;DHT22;454;53.254;10.400;2022-12-18T10:08:25;-4.50;99.90
935;DHT22;454;53.254;10.400;2022-12-18T10:11:01;-4.50;99.90
935;DHT22;454;53.254;10.400;2022-12-18T10:13:33;-4.40;99.90
935;DHT22;454;53.254;10.400;2022-12-18T10:16:09;-4.30;99.90
935;DHT22;454;53.254;10.400;2022-12-18T10:18:58;-4.30;99.90
935;DHT22;454;53.254;10.400;2022-12-18T10:21:31;-4.20;99.90
935;DHT22;454;53.254;10.400;2022-12-18T10:24:08;-4.20;99.90
935;DHT22;454;53.254;10.400;2022-12-18T10:26:37;-4.10;99.90
935;DHT22;454;53.254;10.400;2022-12-18T10:29:09;-4.00;99.90
935;DHT22;454;53.254;10.400;2022-12-18T10:31:37;-3.90;99.90
935;DHT22;454;53.254;10.400;2022-12-18T10:34:04;-3.80;99.90
935;DHT22;454;53.254;10.400;2022-12-18T10:36:32;-3.80;99.90
935;DHT22;454;53.254;10.400;2022-12-18T10:39:15;-3.70;99.90
935;DHT22;454;53.254;10.400;2022-12-18T10:41:42;-3.60;99.90
935;DHT22;454;53.254;10.400;2022-12-18T10:44:12;-3.50;99.90
935;DHT22;454;53.254;10.400;2022-12-18T10:46:41;-3.50;99.90
935;DHT22;454;53.254;10.400;2022-12-18T10:49:18;-3.40;99.90
935;DHT22;454;53.254;10.400;2022-12-18T10:51:47;-3.40;99.90
935;DHT22;454;53.254;10.400;2022-12-18T10:54:15;-3.40;99.90
935;DHT22;454;53.254;10.400;2022-12-18T10:56:43;-3.30;99.90
935;DHT22;454;53.254;10.400;2022-12-18T10:59:13;-3.30;99.90
935;DHT22;454;53.254;10.400;2022-12-18T11:01:51;-3.30;99.90
935;DHT22;454;53.254;10.400;2022-12-18T11:04:20;-3.20;99.90
935;DHT22;454;53.254;10.400;2022-12-18T11:07:09;-3.20;99.90
935;DHT22;454;53.254;10.400;2022-12-18T11:09:38;-3.10;99.90
935;DHT22;454;53.254;10.400;2022-12-18T11:12:15;-3.10;99.90
935;DHT22;454;53.254;10.400;2022-12-18T11:14:45;-3.00;99.90
935;DHT22;454;53.254;10.400;2022-12-18T11:17:19;-3.00;99.90
935;DHT22;454;53.254;10.400;2022-12-18T11:19:52;-2.90;99.90
935;DHT22;454;53.254;10.400;2022-12-18T11:22:23;-2.90;99.90
935;DHT22;454;53.254;10.400;2022-12-18T11:24:54;-2.80;99.90
935;DHT22;454;53.254;10.400;2022-12-18T11:27:21;-2.80;99.90
935;DHT22;454;53.254;10.400;2022-12-18T11:29:49;-2.80;99.90
935;DHT22;454;53.254;10.400;2022-12-18T11:32:25;-2.70;99.90
935;DHT22;454;53.254;10.400;2022-12-18T11:34:57;-2.70;99.90
935;DHT22;454;53.254;10.400;2022-12-18T11:37:27;-2.60;99.90
935;DHT22;454;53.254;10.400;2022-12-18T11:39:57;-2.60;99.90
935;DHT22;454;53.254;10.400;2022-12-18T11:42:30;-2.50;99.90
935;DHT22;454;53.254;10.400;2022-12-18T11:45:01;-2.50;99.90
935;DHT22;454;53.254;10.400;2022-12-18T11:47:39;-2.50;99.90
935;DHT22;454;53.254;10.400;2022-12-18T11:50:16;-2.50;99.90
935;DHT22;454;53.254;10.400;2022-12-18T11:52:45;-2.40;99.90
935;DHT22;454;53.254;10.400;2022-12-18T11:55:14;-2.30;99.90
935;DHT22;454;53.254;10.400;2022-12-18T11:57:46;-2.30;99.90
935;DHT22;454;53.254;10.400;2022-12-18T12:00:20;-2.20;99.90
935;DHT22;454;53.254;10.400;2022-12-18T12:06:01;-2.10;99.90
935;DHT22;454;53.254;10.400;2022-12-18T12:08:40;-2.10;99.90
935;DHT22;454;53.254;10.400;2022-12-18T12:11:18;-2.10;99.90
935;DHT22;454;53.254;10.400;2022-12-18T12:13:55;-2.00;99.90
935;DHT22;454;53.254;10.400;2022-12-18T12:16:31;-2.00;99.90
935;DHT22;454;53.254;10.400;2022-12-18T12:19:12;-2.00;99.90
935;DHT22;454;53.254;10.400;2022-12-18T12:21:43;-1.90;99.90
935;DHT22;454;53.254;10.400;2022-12-18T12:24:29;-1.90;99.90
935;DHT22;454;53.254;10.400;2022-12-18T12:27:04;-1.90;99.90
935;DHT22;454;53.254;10.400;2022-12-18T12:29:41;-1.90;99.90
935;DHT22;454;53.254;10.400;2022-12-18T12:32:22;-1.90;99.90
935;DHT22;454;53.254;10.400;2022-12-18T12:34:59;-1.80;99.90
935;DHT22;454;53.254;10.400;2022-12-18T12:37:36;-1.80;99.90
935;DHT22;454;53.254;10.400;2022-12-18T12:40:07;-1.70;99.90
935;DHT22;454;53.254;10.400;2022-12-18T12:42:42;-1.80;99.90
935;DHT22;454;53.254;10.400;2022-12-18T12:45:34;-1.70;99.90
935;DHT22;454;53.254;10.400;2022-12-18T12:48:04;-1.80;99.90
935;DHT22;454;53.254;10.400;2022-12-18T12:50:34;-1.80;99.90
935;DHT22;454;53.254;10.400;2022-12-18T12:53:06;-1.80;99.90
935;DHT22;454;53.254;10.400;2022-12-18T12:55:35;-1.80;99.90
935;DHT22;454;53.254;10.400;2022-12-18T12:58:06;-1.80;99.90
935;DHT22;454;53.254;10.400;2022-12-18T13:00:40;-1.80;99.90
935;DHT22;454;53.254;10.400;2022-12-18T13:03:15;-1.70;99.90
935;DHT22;454;53.254;10.400;2022-12-18T13:05:50;-1.80;99.90
935;DHT22;454;53.254;10.400;2022-12-18T13:08:24;-1.80;99.90
935;DHT22;454;53.254;10.400;2022-12-18T13:10:53;-1.80;99.90
935;DHT22;454;53.254;10.400;2022-12-18T13:13:57;-1.80;99.90
935;DHT22;454;53.254;10.400;2022-12-18T13:16:25;-1.80;99.90
935;DHT22;454;53.254;10.400;2022-12-18T13:18:53;-1.80;99.90
935;DHT22;454;53.254;10.400;2022-12-18T13:21:25;-1.80;99.90
935;DHT22;454;53.254;10.400;2022-12-18T13:23:53;-1.90;99.90
935;DHT22;454;53.254;10.400;2022-12-18T13:26:32;-1.80;99.90
935;DHT22;454;53.254;10.400;2022-12-18T13:29:00;-1.80;99.90
935;DHT22;454;53.254;10.400;2022-12-18T13:31:59;-1.90;99.90
935;DHT22;454;53.254;10.400;2022-12-18T13:34:28;-1.80;99.90
935;DHT22;454;53.254;10.400;2022-12-18T13:36:57;-1.80;99.90
935;DHT22;454;53.254;10.400;2022-12-18T13:39:31;-1.90;99.90
935;DHT22;454;53.254;10.400;2022-12-18T13:42:35;-1.80;99.90
935;DHT22;454;53.254;10.400;2022-12-18T13:45:45;-1.90;99.90
935;DHT22;454;53.254;10.400;2022-12-18T13:48:23;-1.90;99.90
935;DHT22;454;53.254;10.400;2022-12-18T13:50:55;-2.00;99.90
935;DHT22;454;53.254;10.400;2022-12-18T13:53:26;-2.10;99.90
935;DHT22;454;53.254;10.400;2022-12-18T13:55:54;-2.10;99.90
935;DHT22;454;53.254;10.400;2022-12-18T13:58:22;-2.20;99.90
935;DHT22;454;53.254;10.400;2022-12-18T14:00:48;-2.20;99.90
935;DHT22;454;53.254;10.400;2022-12-18T14:03:18;-2.20;99.90
935;DHT22;454;53.254;10.400;2022-12-18T14:05:45;-2.20;99.90
935;DHT22;454;53.254;10.400;2022-12-18T14:08:18;-2.20;99.90
935;DHT22;454;53.254;10.400;2022-12-18T14:10:47;-2.30;99.90
935;DHT22;454;53.254;10.400;2022-12-18T14:13:18;-2.30;99.90
935;DHT22;454;53.254;10.400;2022-12-18T14:15:48;-2.30;99.90
935;DHT22;454;53.254;10.400;2022-12-18T14:18:21;-2.30;99.90
935;DHT22;454;53.254;10.400;2022-12-18T14:20:50;-2.40;99.90
935;DHT22;454;53.254;10.400;2022-12-18T14:23:35;-2.40;99.90
935;DHT22;454;53.254;10.400;2022-12-18T14:26:19;-2.40;99.90
935;DHT22;454;53.254;10.400;2022-12-18T14:28:46;-2.40;99.90
935;DHT22;454;53.254;10.400;2022-12-18T14:31:18;-2.40;99.90
935;DHT22;454;53.254;10.400;2022-12-18T14:33:45;-2.50;99.90
935;DHT22;454;53.254;10.400;2022-12-18T14:36:16;-2.50;99.90
935;DHT22;454;53.254;10.400;2022-12-18T14:38:48;-2.50;99.90
935;DHT22;454;53.254;10.400;2022-12-18T14:41:16;-2.50;99.90
935;DHT22;454;53.254;10.400;2022-12-18T14:43:44;-2.60;99.90
935;DHT22;454;53.254;10.400;2022-12-18T14:46:29;-2.60;99.90
935;DHT22;454;53.254;10.400;2022-12-18T14:48:56;-2.60;99.90
935;DHT22;454;53.254;10.400;2022-12-18T14:51:27;-2.60;99.90
935;DHT22;454;53.254;10.400;2022-12-18T14:53:56;-2.60;99.90
935;DHT22;454;53.254;10.400;2022-12-18T14:56:25;-2.60;99.90
935;DHT22;454;53.254;10.400;2022-12-18T14:58:54;-2.70;99.90
935;DHT22;454;53.254;10.400;2022-12-18T15:01:24;-2.70;99.90
935;DHT22;454;53.254;10.400;2022-12-18T15:03:54;-2.70;99.90
935;DHT22;454;53.254;10.400;2022-12-18T15:06:27;-2.70;99.90
935;DHT22;454;53.254;10.400;2022-12-18T15:08:54;-2.70;99.90
935;DHT22;454;53.254;10.400;2022-12-18T15:11:35;-2.70;99.90
935;DHT22;454;53.254;10.400;2022-12-18T15:14:23;-2.70;99.90
935;DHT22;454;53.254;10.400;2022-12-18T15:16:52;-2.70;99.90
935;DHT22;454;53.254;10.400;2022-12-18T15:19:22;-2.80;99.90
935;DHT22;454;53.254;10.400;2022-12-18T15:21:49;-2.70;99.90
935;DHT22;454;53.254;10.400;2022-12-18T15:24:18;-2.70;99.90
935;DHT22;454;53.254;10.400;2022-12-18T15:26:47;-2.80;99.90
935;DHT22;454;53.254;10.400;2022-12-18T15:29:22;-2.80;99.90
935;DHT22;454;53.254;10.400;2022-12-18T15:32:02;-2.80;99.90
935;DHT22;454;53.254;10.400;2022-12-18T15:34:31;-2.80;99.90
935;DHT22;454;53.254;10.400;2022-12-18T15:36:59;-2.80;99.90
935;DHT22;454;53.254;10.400;2022-12-18T15:39:26;-2.80;99.90
935;DHT22;454;53.254;10.400;2022-12-18T15:41:52;-2.80;99.90
935;DHT22;454;53.254;10.400;2022-12-18T15:44:36;-2.80;99.90
935;DHT22;454;53.254;10.400;2022-12-18T15:47:11;-2.80;99.90
935;DHT22;454;53.254;10.400;2022-12-18T15:49:39;-2.70;99.90
935;DHT22;454;53.254;10.400;2022-12-18T15:52:08;-2.80;99.90
935;DHT22;454;53.254;10.400;2022-12-18T15:54:38;-2.70;99.90
935;DHT22;454;53.254;10.400;2022-12-18T15:57:22;-2.70;99.90
935;DHT22;454;53.254;10.400;2022-12-18T15:59:49;-2.70;99.90
935;DHT22;454;53.254;10.400;2022-12-18T16:02:17;-2.70;99.90
935;DHT22;454;53.254;10.400;2022-12-18T16:04:45;-2.70;99.90
935;DHT22;454;53.254;10.400;2022-12-18T16:07:12;-2.70;99.90
935;DHT22;454;53.254;10.400;2022-12-18T16:09:39;-2.70;99.90
935;DHT22;454;53.254;10.400;2022-12-18T16:12:06;-2.60;99.90
935;DHT22;454;53.254;10.400;2022-12-18T16:14:37;-2.60;99.90
935;DHT22;454;53.254;10.400;2022-12-18T16:17:08;-2.60;99.90
935;DHT22;454;53.254;10.400;2022-12-18T16:19:35;-2.60;99.90
935;DHT22;454;53.254;10.400;2022-12-18T16:22:17;-2.60;99.90
935;DHT22;454;53.254;10.400;2022-12-18T16:24:44;-2.60;99.90
935;DHT22;454;53.254;10.400;2022-12-18T16:27:11;-2.60;99.90
935;DHT22;454;53.254;10.400;2022-12-18T16:29:37;-2.60;99.90
935;DHT22;454;53.254;10.400;2022-12-18T16:32:04;-2.60;99.90
935;DHT22;454;53.254;10.400;2022-12-18T16:34:32;-2.60;99.90
935;DHT22;454;53.254;10.400;2022-12-18T16:37:01;-2.60;99.90
935;DHT22;454;53.254;10.400;2022-12-18T16:39:29;-2.50;99.90
935;DHT22;454;53.254;10.400;2022-12-18T16:41:57;-2.50;99.90
935;DHT22;454;53.254;10.400;2022-12-18T16:44:24;-2.50;99.90
935;DHT22;454;53.254;10.400;2022-12-18T16:46:51;-2.50;99.90
935;DHT22;454;53.254;10.400;2022-12-18T16:49:18;-2.50;99.90
935;DHT22;454;53.254;10.400;2022-12-18T16:51:46;-2.50;99.90
935;DHT22;454;53.254;10.400;2022-12-18T16:54:13;-2.50;99.90
935;DHT22;454;53.254;10.400;2022-12-18T16:56:41;-2.50;99.90
935;DHT22;454;53.254;10.400;2022-12-18T16:59:10;-2.50;99.90
935;DHT22;454;53.254;10.400;2022-12-18T17:01:37;-2.50;99.90
935;DHT22;454;53.254;10.400;2022-12-18T17:04:06;-2.50;99.90
935;DHT22;454;53.254;10.400;2022-12-18T17:06:35;-2.50;99.90
935;DHT22;454;53.254;10.400;2022-12-18T17:09:06;-2.50;99.90
935;DHT22;454;53.254;10.400;2022-12-18T17:11:34;-2.50;99.90
935;DHT22;454;53.254;10.400;2022-12-18T17:14:07;-2.40;99.90
935;DHT22;454;53.254;10.400;2022-12-18T17:16:34;-2.40;99.90
935;DHT22;454;53.254;10.400;2022-12-18T17:19:01;-2.40;99.90
935;DHT22;454;53.254;10.400;2022-12-18T17:21:28;-2.40;99.90
935;DHT22;454;53.254;10.400;2022-12-18T17:23:54;-2.40;99.90
935;DHT22;454;53.254;10.400;2022-12-18T17:26:21;-2.40;99.90
935;DHT22;454;53.254;10.400;2022-12-18T17:28:48;-2.40;99.90
935;DHT22;454;53.254;10.400;2022-12-18T17:31:19;-2.30;99.90
935;DHT22;454;53.254;10.400;2022-12-18T17:33:46;-2.30;99.90
935;DHT22;454;53.254;10.400;2022-12-18T17:36:14;-2.30;99.90
935;DHT22;454;53.254;10.400;2022-12-18T17:38:49;-2.30;99.90
935;DHT22;454;53.254;10.400;2022-12-18T17:41:16;-2.30;99.90
935;DHT22;454;53.254;10.400;2022-12-18T17:43:44;-2.30;99.90
935;DHT22;454;53.254;10.400;2022-12-18T17:46:17;-2.20;99.90
935;DHT22;454;53.254;10.400;2022-12-18T17:48:44;-2.30;99.90
935;DHT22;454;53.254;10.400;2022-12-18T17:51:10;-2.20;99.90
935;DHT22;454;53.254;10.400;2022-12-18T17:53:38;-2.20;99.90
935;DHT22;454;53.254;10.400;2022-12-18T17:56:05;-2.20;99.90
935;DHT22;454;53.254;10.400;2022-12-18T17:58:32;-2.20;99.90
935;DHT22;454;53.254;10.400;2022-12-18T18:00:59;-2.20;99.90
935;DHT22;454;53.254;10.400;2022-12-18T18:03:27;-2.20;99.90
935;DHT22;454;53.254;10.400;2022-12-18T18:05:55;-2.20;99.90
935;DHT22;454;53.254;10.400;2022-12-18T18:08:21;-2.10;99.90
935;DHT22;454;53.254;10.400;2022-12-18T18:10:48;-2.20;99.90
935;DHT22;454;53.254;10.400;2022-12-18T18:13:19;-2.20;99.90
935;DHT22;454;53.254;10.400;2022-12-18T18:16:03;-2.10;99.90
935;DHT22;454;53.254;10.400;2022-12-18T18:18:32;-2.10;99.90
935;DHT22;454;53.254;10.400;2022-12-18T18:21:03;-2.10;99.90
935;DHT22;454;53.254;10.400;2022-12-18T18:23:30;-2.20;99.90
935;DHT22;454;53.254;10.400;2022-12-18T18:26:01;-2.20;99.90
935;DHT22;454;53.254;10.400;2022-12-18T18:28:28;-2.10;99.90
935;DHT22;454;53.254;10.400;2022-12-18T18:30:55;-2.10;99.90
935;DHT22;454;53.254;10.400;2022-12-18T18:33:22;-2.10;99.90
935;DHT22;454;53.254;10.400;2022-12-18T18:35:50;-2.20;99.90
935;DHT22;454;53.254;10.400;2022-12-18T18:38:17;-2.10;99.90
935;DHT22;454;53.254;10.400;2022-12-18T18:40:43;-2.20;99.90
935;DHT22;454;53.254;10.400;2022-12-18T18:43:10;-2.10;99.90
935;DHT22;454;53.254;10.400;2022-12-18T18:45:37;-2.10;99.90
935;DHT22;454;53.254;10.400;2022-12-18T18:48:04;-2.10;99.90
935;DHT22;454;53.254;10.400;2022-12-18T18:50:31;-2.10;99.90
935;DHT22;454;53.254;10.400;2022-12-18T18:52:59;-2.10;99.90
935;DHT22;454;53.254;10.400;2022-12-18T18:55:25;-2.10;99.90
935;DHT22;454;53.254;10.400;2022-12-18T18:57:52;-2.10;99.90
935;DHT22;454;53.254;10.400;2022-12-18T19:00:19;-2.20;99.90
935;DHT22;454;53.254;10.400;2022-12-18T19:02:45;-2.10;99.90
935;DHT22;454;53.254;10.400;2022-12-18T19:05:12;-2.20;99.90
935;DHT22;454;53.254;10.400;2022-12-18T19:07:39;-2.10;99.90
935;DHT22;454;53.254;10.400;2022-12-18T19:10:08;-2.10;99.90
935;DHT22;454;53.254;10.400;2022-12-18T19:12:34;-2.10;99.90
935;DHT22;454;53.254;10.400;2022-12-18T19:15:19;-2.10;99.90
935;DHT22;454;53.254;10.400;2022-12-18T19:17:46;-2.10;99.90
935;DHT22;454;53.254;10.400;2022-12-18T19:20:12;-2.10;99.90
935;DHT22;454;53.254;10.400;2022-12-18T19:22:39;-2.10;99.90
935;DHT22;454;53.254;10.400;2022-12-18T19:25:08;-2.10;99.90
935;DHT22;454;53.254;10.400;2022-12-18T19:27:34;-2.10;99.90
935;DHT22;454;53.254;10.400;2022-12-18T19:30:05;-2.10;99.90
935;DHT22;454;53.254;10.400;2022-12-18T19:32:32;-2.10;99.90
935;DHT22;454;53.254;10.400;2022-12-18T19:34:59;-2.00;99.90
935;DHT22;454;53.254;10.400;2022-12-18T19:37:26;-2.00;99.90
935;DHT22;454;53.254;10.400;2022-12-18T19:39:52;-2.10;99.90
935;DHT22;454;53.254;10.400;2022-12-18T19:42:21;-2.10;99.90
935;DHT22;454;53.254;10.400;2022-12-18T19:44:47;-2.10;99.90
935;DHT22;454;53.254;10.400;2022-12-18T19:47:14;-2.00;99.90
935;DHT22;454;53.254;10.400;2022-12-18T19:49:40;-2.00;99.90
935;DHT22;454;53.254;10.400;2022-12-18T19:52:07;-2.00;99.90
935;DHT22;454;53.254;10.400;2022-12-18T19:54:34;-2.00;99.90
935;DHT22;454;53.254;10.400;2022-12-18T19:57:01;-2.00;99.90
935;DHT22;454;53.254;10.400;2022-12-18T19:59:32;-2.00;99.90
935;DHT22;454;53.254;10.400;2022-12-18T20:02:00;-2.00;99.90
935;DHT22;454;53.254;10.400;2022-12-18T20:04:26;-2.00;99.90
935;DHT22;454;53.254;10.400;2022-12-18T20:06:54;-2.00;99.90
935;DHT22;454;53.254;10.400;2022-12-18T20:09:20;-2.00;99.90
935;DHT22;454;53.254;10.400;2022-12-18T20:11:47;-2.00;99.90
935;DHT22;454;53.254;10.400;2022-12-18T20:14:15;-2.00;99.90
935;DHT22;454;53.254;10.400;2022-12-18T20:16:44;-1.90;99.90
935;DHT22;454;53.254;10.400;2022-12-18T20:19:11;-1.90;99.90
935;DHT22;454;53.254;10.400;2022-12-18T20:21:38;-1.90;99.90
935;DHT22;454;53.254;10.400;2022-12-18T20:24:06;-2.00;99.90
935;DHT22;454;53.254;10.400;2022-12-18T20:26:33;-1.90;99.90
935;DHT22;454;53.254;10.400;2022-12-18T20:28:59;-2.00;99.90
935;DHT22;454;53.254;10.400;2022-12-18T20:31:26;-2.00;99.90
935;DHT22;454;53.254;10.400;2022-12-18T20:33:56;-1.90;99.90
935;DHT22;454;53.254;10.400;2022-12-18T20:36:23;-1.90;99.90
935;DHT22;454;53.254;10.400;2022-12-18T20:38:49;-1.90;99.90
935;DHT22;454;53.254;10.400;2022-12-18T20:41:19;-1.90;99.90
935;DHT22;454;53.254;10.400;2022-12-18T20:43:47;-1.80;99.90
935;DHT22;454;53.254;10.400;2022-12-18T20:46:15;-1.80;99.90
935;DHT22;454;53.254;10.400;2022-12-18T20:48:43;-1.80;99.90
935;DHT22;454;53.254;10.400;2022-12-18T20:51:12;-1.80;99.90
935;DHT22;454;53.254;10.400;2022-12-18T20:53:39;-1.80;99.90
935;DHT22;454;53.254;10.400;2022-12-18T20:56:07;-1.80;99.90
935;DHT22;454;53.254;10.400;2022-12-18T20:58:34;-1.80;99.90
935;DHT22;454;53.254;10.400;2022-12-18T21:01:02;-1.80;99.90
935;DHT22;454;53.254;10.400;2022-12-18T21:03:29;-1.80;99.90
935;DHT22;454;53.254;10.400;2022-12-18T21:05:56;-1.80;99.90
935;DHT22;454;53.254;10.400;2022-12-18T21:08:24;-1.80;99.90
935;DHT22;454;53.254;10.400;2022-12-18T21:10:51;-1.80;99.90
935;DHT22;454;53.254;10.400;2022-12-18T21:13:17;-1.70;99.90
935;DHT22;454;53.254;10.400;2022-12-18T21:15:43;-1.70;99.90
935;DHT22;454;53.254;10.400;2022-12-18T21:18:10;-1.70;99.90
935;DHT22;454;53.254;10.400;2022-12-18T21:20:36;-1.70;99.90
935;DHT22;454;53.254;10.400;2022-12-18T21:23:03;-1.70;99.90
935;DHT22;454;53.254;10.400;2022-12-18T21:25:32;-1.70;99.90
935;DHT22;454;53.254;10.400;2022-12-18T21:27:59;-1.70;99.90
935;DHT22;454;53.254;10.400;2022-12-18T21:30:26;-1.70;99.90
935;DHT22;454;53.254;10.400;2022-12-18T21:32:52;-1.70;99.90
935;DHT22;454;53.254;10.400;2022-12-18T21:35:19;-1.60;99.90
935;DHT22;454;53.254;10.400;2022-12-18T21:37:46;-1.60;99.90